Time;durP1;ratioP1;P1;durP2;ratioP2;P2;SDS_P1;SDS_P2;PMS_P1;PMS_P2;Temp;Humidity;BMP_temperature;BMP_pressure;BME280_temperature;BME280_humidity;BME280_pressure;Samples;Min_cycle;Max_cycle;Signal;HPM_P1;HPM_P2
2023/02/17 06:54:16;;;;;;;10.52;7.45;;;;;;;;;;10585668;27;20112;-84
2023/02/17 06:59:17;;;;;;;9.27;6.57;;;;;;;;;;10586615;28;20139;-84
2023/02/17 07:04:19;;;;;;;10.63;9.35;;;;;;;;;;10588541;28;20028;-84
2023/02/17 07:09:22;;;;;;;8.43;6.35;;;;;;;;;;10591809;27;20016;-84
2023/02/17 07:14:27;;;;;;;7.75;6.70;;;;;;;;;;10591115;27;20052;-84
2023/02/17 07:19:28;;;;;;;11.07;9.38;;;;;;;;;;10584544;28;20108;-84
2023/02/17 07:24:29;;;;;;;11.68;10.18;;;;;;;;;;10583440;28;20036;-84
2023/02/17 07:29:30;;;;;;;9.45;8.23;;;;;;;;;;10586850;28;20064;-84
2023/02/17 07:34:31;;;;;;;9.65;8.63;;;;;;;;;;10596181;28;20039;-84
2023/02/17 07:39:33;;;;;;;8.85;7.38;;;;;;;;;;10620678;27;20047;-84
2023/02/17 07:44:45;;;;;;;7.00;5.45;;;;;;;;;;10618230;27;20027;-84
2023/02/17 07:49:46;;;;;;;10.98;9.10;;;;;;;;;;10624772;27;20052;-84
2023/02/17 07:54:47;;;;;;;8.40;6.18;;;;;;;;;;10598479;27;20028;-84
2023/02/17 07:59:48;;;;;;;7.22;6.22;;;;;;;;;;10585511;28;20118;-83
2023/02/17 08:04:49;;;;;;;;;;;;;;;;;;10561623;28;20021;-84
2023/02/17 08:15:10;;;;;;;5.35;4.07;;;;;;;;;;10559690;28;20028;-79
2023/02/17 08:20:14;;;;;;;6.03;4.00;;;;;;;;;;10561438;28;20024;-80
2023/02/17 08:25:15;;;;;;;6.55;4.65;;;;;;;;;;10558711;28;20020;-80
2023/02/17 08:30:16;;;;;;;5.20;4.47;;;;;;;;;;10563478;28;20020;-79
2023/02/17 08:35:21;;;;;;;6.60;4.90;;;;;;;;;;10560063;28;20166;-80
2023/02/17 08:40:22;;;;;;;5.68;5.13;;;;;;;;;;10560878;28;20028;-80
2023/02/17 08:45:23;;;;;;;7.20;6.50;;;;;;;;;;10558956;28;20416;-80
2023/02/17 08:50:24;;;;;;;5.90;5.30;;;;;;;;;;10563010;28;20115;-79
2023/02/17 08:55:25;;;;;;;6.18;4.68;;;;;;;;;;10558823;28;20111;-80
2023/02/17 09:00:26;;;;;;;4.20;3.80;;;;;;;;;;10560994;28;20027;-79
2023/02/17 09:05:28;;;;;;;4.60;4.00;;;;;;;;;;10564178;28;20096;-79
2023/02/17 09:10:29;;;;;;;5.70;4.60;;;;;;;;;;10564999;28;20032;-79
2023/02/17 09:15:30;;;;;;;4.05;3.63;;;;;;;;;;10562103;28;20059;-80
2023/02/17 09:20:31;;;;;;;;;;;;;;;;;;10564905;28;20124;-79
2023/02/17 09:25:33;;;;;;;;;;;;;;;;;;10565357;28;19918;-79
2023/02/17 09:30:35;;;;;;;6.78;5.22;;;;;;;;;;10559539;28;19911;-79
2023/02/17 09:35:37;;;;;;;5.65;4.72;;;;;;;;;;10551048;28;20028;-80
2023/02/17 09:40:42;;;;;;;7.38;5.55;;;;;;;;;;10554550;28;20099;-79
2023/02/17 09:45:50;;;;;;;6.22;5.30;;;;;;;;;;10555370;28;20016;-81
2023/02/17 09:51:10;;;;;;;7.45;5.97;;;;;;;;;;10550612;28;20048;-81
2023/02/17 09:56:14;;;;;;;6.30;4.97;;;;;;;;;;10552155;28;20085;-81
2023/02/17 10:01:28;;;;;;;5.60;4.70;;;;;;;;;;10554101;28;20112;-82
2023/02/17 10:06:32;;;;;;;4.57;4.07;;;;;;;;;;10552743;28;20031;-82
2023/02/17 10:11:33;;;;;;;5.75;4.10;;;;;;;;;;10535830;28;20395;-81
2023/02/17 10:16:34;;;;;;;;;;;;;;;;;;10552376;28;20039;-81
2023/02/17 10:21:37;;;;;;;6.28;5.13;;;;;;;;;;10567386;28;19943;-80
2023/02/17 10:26:38;;;;;;;7.05;6.18;;;;;;;;;;10584971;28;20024;-80
2023/02/17 10:31:39;;;;;;;;;;;;;;;;;;10584597;28;20032;-80
2023/02/17 10:36:50;;;;;;;7.30;5.50;;;;;;;;;;10564994;28;19971;-81
2023/02/17 10:42:01;;;;;;;;;;;;;;;;;;10554013;28;20434;-82
2023/02/17 10:47:03;;;;;;;9.95;7.90;;;;;;;;;;10550266;28;19904;-80
2023/02/17 10:52:12;;;;;;;7.55;6.47;;;;;;;;;;10547094;28;20040;-80
2023/02/17 10:57:14;;;;;;;10.23;5.85;;;;;;;;;;10546711;28;20028;-80
2023/02/17 11:02:22;;;;;;;8.77;6.13;;;;;;;;;;10551669;28;20392;-80
2023/02/17 11:07:26;;;;;;;6.75;4.85;;;;;;;;;;10547183;28;20104;-81
2023/02/17 11:12:27;;;;;;;6.82;5.00;;;;;;;;;;10549038;28;20127;-80
2023/02/17 11:17:28;;;;;;;;;;;;;;;;;;10549438;28;20206;-80
2023/02/17 11:22:31;;;;;;;5.53;4.38;;;;;;;;;;10551504;28;19914;-80
2023/02/17 11:27:32;;;;;;;6.00;4.32;;;;;;;;;;10549643;28;20490;-79
2023/02/17 11:32:34;;;;;;;;;;;;;;;;;;10546597;28;20113;-80
2023/02/17 11:37:37;;;;;;;5.07;3.80;;;;;;;;;;10548855;28;20349;-80
2023/02/17 11:42:38;;;;;;;5.78;3.83;;;;;;;;;;10558376;28;20474;-79
2023/02/17 11:47:39;;;;;;;;;;;;;;;;;;10562623;28;20477;-79
2023/02/17 11:52:59;;;;;;;7.05;5.05;;;;;;;;;;10583277;28;19922;-80
2023/02/17 11:58:04;;;;;;;6.13;5.45;;;;;;;;;;10567909;28;20039;-80
2023/02/17 12:03:24;;;;;;;5.75;4.63;;;;;;;;;;10563828;28;20032;-80
2023/02/17 12:08:26;;;;;;;6.93;5.50;;;;;;;;;;10566390;28;20103;-80
2023/02/17 12:13:39;;;;;;;6.25;4.75;;;;;;;;;;10559939;28;20059;-80
2023/02/17 12:18:46;;;;;;;7.07;5.80;;;;;;;;;;10558932;28;20035;-81
2023/02/17 12:24:01;;;;;;;6.45;4.20;;;;;;;;;;10552985;28;20123;-80
2023/02/17 12:29:05;;;;;;;5.20;3.67;;;;;;;;;;10552659;28;20020;-80
2023/02/17 12:34:13;;;;;;;5.60;4.07;;;;;;;;;;10553818;28;20028;-80
2023/02/17 12:39:24;;;;;;;5.80;4.20;;;;;;;;;;10553004;28;20024;-80
2023/02/17 12:44:31;;;;;;;6.00;4.75;;;;;;;;;;10552707;28;20170;-80
2023/02/17 12:49:40;;;;;;;5.10;4.60;;;;;;;;;;10550865;28;20119;-81
2023/02/17 12:54:42;;;;;;;5.50;4.32;;;;;;;;;;10554566;28;20028;-81
2023/02/17 12:59:49;;;;;;;6.47;3.55;;;;;;;;;;10553825;28;20076;-81
2023/02/17 13:04:51;;;;;;;4.50;3.10;;;;;;;;;;10553675;28;20026;-81
2023/02/17 13:09:53;;;;;;;3.83;2.90;;;;;;;;;;10554326;28;20103;-80
2023/02/17 13:14:56;;;;;;;3.67;2.80;;;;;;;;;;10558089;28;20062;-80
2023/02/17 13:20:10;;;;;;;4.97;3.20;;;;;;;;;;10572408;28;20035;-81
2023/02/17 13:25:13;;;;;;;4.05;3.03;;;;;;;;;;10555806;28;20080;-80
2023/02/17 13:30:17;;;;;;;3.75;2.60;;;;;;;;;;10551000;28;20126;-80
2023/02/17 13:35:27;;;;;;;3.63;2.50;;;;;;;;;;10559033;28;20028;-81
2023/02/17 13:40:28;;;;;;;4.93;2.97;;;;;;;;;;10551832;28;20040;-81
2023/02/17 13:45:30;;;;;;;4.20;2.35;;;;;;;;;;10553042;28;20044;-80
2023/02/17 13:50:35;;;;;;;5.15;2.92;;;;;;;;;;10548513;28;20031;-79
2023/02/17 13:55:40;;;;;;;2.35;1.95;;;;;;;;;;10554431;28;20028;-81
2023/02/17 14:00:44;;;;;;;2.85;2.15;;;;;;;;;;10553288;28;20036;-80
2023/02/17 14:05:46;;;;;;;4.57;2.25;;;;;;;;;;10558400;28;20034;-80
2023/02/17 14:10:48;;;;;;;4.05;3.33;;;;;;;;;;10554969;28;20027;-79
2023/02/17 14:15:53;;;;;;;2.97;2.38;;;;;;;;;;10554281;28;20024;-80
2023/02/17 14:21:09;;;;;;;8.55;3.10;;;;;;;;;;10552121;28;20024;-81
2023/02/17 14:26:12;;;;;;;3.88;2.97;;;;;;;;;;10548055;28;20047;-80
2023/02/17 14:31:18;;;;;;;4.35;3.95;;;;;;;;;;10549515;28;20043;-80
2023/02/17 14:36:26;;;;;;;4.53;4.05;;;;;;;;;;10549118;28;20019;-80
2023/02/17 14:41:27;;;;;;;5.68;4.68;;;;;;;;;;10548796;28;20027;-80
2023/02/17 14:46:28;;;;;;;5.30;4.45;;;;;;;;;;10546666;28;20028;-79
2023/02/17 14:51:29;;;;;;;;;;;;;;;;;;10549490;28;20500;-80
2023/02/17 14:56:35;;;;;;;4.30;3.90;;;;;;;;;;10550981;28;19904;-81
2023/02/17 15:01:37;;;;;;;5.93;4.90;;;;;;;;;;10550757;28;20060;-78
2023/02/17 15:06:45;;;;;;;;;;;;;;;;;;10550085;28;20119;-80
2023/02/17 15:11:47;;;;;;;4.93;4.18;;;;;;;;;;10547654;28;19904;-79
2023/02/17 15:16:49;;;;;;;5.05;4.47;;;;;;;;;;10555876;28;20028;-78
2023/02/17 15:21:51;;;;;;;6.38;5.65;;;;;;;;;;10554488;28;20094;-81
2023/02/17 15:26:53;;;;;;;5.25;4.60;;;;;;;;;;10557932;28;20066;-80
2023/02/17 15:31:55;;;;;;;6.80;5.90;;;;;;;;;;10552703;28;20073;-80
2023/02/17 15:36:56;;;;;;;6.13;5.53;;;;;;;;;;10556384;28;20025;-80
2023/02/17 15:41:59;;;;;;;8.68;7.78;;;;;;;;;;10558370;28;20036;-82
2023/02/17 15:47:00;;;;;;;5.95;5.35;;;;;;;;;;10584952;28;20032;-81
2023/02/17 15:52:01;;;;;;;5.15;4.65;;;;;;;;;;10589286;28;20028;-79
2023/02/17 15:57:06;;;;;;;6.28;3.85;;;;;;;;;;10562572;28;20032;-81
2023/02/17 16:02:17;;;;;;;4.63;4.20;;;;;;;;;;10558003;28;20028;-80
2023/02/17 16:07:18;;;;;;;6.18;5.50;;;;;;;;;;10559934;28;20012;-80
2023/02/17 16:12:25;;;;;;;5.53;4.35;;;;;;;;;;10557346;28;20032;-81
2023/02/17 16:17:26;;;;;;;6.50;5.75;;;;;;;;;;10568588;28;20043;-80
2023/02/17 16:22:29;;;;;;;5.40;4.90;;;;;;;;;;10582795;28;20070;-79
2023/02/17 16:27:30;;;;;;;6.05;5.15;;;;;;;;;;10556417;28;20024;-80
2023/02/17 16:32:31;;;;;;;;;;;;;;;;;;10553163;28;20195;-79
2023/02/17 16:37:32;;;;;;;5.70;4.97;;;;;;;;;;10555661;28;19957;-81
2023/02/17 16:42:33;;;;;;;4.55;3.97;;;;;;;;;;10551986;28;20554;-80
2023/02/17 16:47:34;;;;;;;6.30;5.18;;;;;;;;;;10552650;28;20363;-80
2023/02/17 16:52:35;;;;;;;6.05;4.65;;;;;;;;;;10550875;28;20040;-80
2023/02/17 16:57:36;;;;;;;;;;;;;;;;;;10550962;28;20240;-80
2023/02/17 17:02:37;;;;;;;6.63;4.22;;;;;;;;;;10548930;28;19908;-80
2023/02/17 17:07:38;;;;;;;;;;;;;;;;;;10558195;28;20077;-79
2023/02/17 17:12:39;;;;;;;6.00;5.07;;;;;;;;;;10553839;28;19938;-80
2023/02/17 17:17:45;;;;;;;2.88;2.30;;;;;;;;;;10552627;28;20028;-83
2023/02/17 17:22:48;;;;;;;4.78;2.47;;;;;;;;;;10560195;28;20093;-83
2023/02/17 17:27:49;;;;;;;7.35;4.05;;;;;;;;;;10568398;28;20038;-84
2023/02/17 17:32:50;;;;;;;5.75;5.15;;;;;;;;;;10555874;28;20098;-84
2023/02/17 17:37:51;;;;;;;;;;;;;;;;;;10556275;28;20023;-84
2023/02/17 17:42:52;;;;;;;5.15;4.75;;;;;;;;;;10556786;28;19916;-84
2023/02/17 17:47:54;;;;;;;6.10;4.90;;;;;;;;;;10558357;28;20118;-85
2023/02/17 17:52:55;;;;;;;4.63;4.03;;;;;;;;;;10553544;28;20086;-84
2023/02/17 17:57:56;;;;;;;;;;;;;;;;;;10546998;28;20087;-84
2023/02/17 18:02:57;;;;;;;5.53;4.88;;;;;;;;;;10547904;28;19915;-84
2023/02/17 18:07:58;;;;;;;;;;;;;;;;;;10546875;28;20137;-84
2023/02/17 18:12:59;;;;;;;6.47;5.78;;;;;;;;;;10439104;22;20394;-82
2023/02/17 18:18:00;;;;;;;;;;;;;;;;;;10393110;28;20116;-82
2023/02/17 18:23:01;;;;;;;6.85;6.15;;;;;;;;;;10392707;28;19928;-82
2023/02/17 18:28:02;;;;;;;;;;;;;;;;;;10395949;28;20432;-82
2023/02/17 18:33:03;;;;;;;7.72;6.93;;;;;;;;;;10401490;28;19976;-82
2023/02/17 18:38:04;;;;;;;;;;;;;;;;;;10402251;28;20064;-82
2023/02/17 18:43:05;;;;;;;6.60;5.93;;;;;;;;;;10393989;28;19910;-82
2023/02/17 18:48:06;;;;;;;;;;;;;;;;;;10395700;28;20209;-82
2023/02/17 18:53:07;;;;;;;4.95;4.45;;;;;;;;;;10393134;28;20041;-81
2023/02/17 18:58:08;;;;;;;9.48;7.45;;;;;;;;;;10396062;28;20435;-82
2023/02/17 19:03:09;;;;;;;;;;;;;;;;;;10399601;28;20026;-82
2023/02/17 19:08:10;;;;;;;7.57;6.72;;;;;;;;;;10398633;28;19905;-85
2023/02/17 19:13:11;;;;;;;;;;;;;;;;;;10408404;28;20041;-82
2023/02/17 19:18:12;;;;;;;10.18;9.18;;;;;;;;;;10397260;28;20236;-81
2023/02/17 19:23:13;;;;;;;;;;;;;;;;;;10387209;28;20034;-82
2023/02/17 19:28:14;;;;;;;10.45;8.23;;;;;;;;;;10388789;28;20001;-82
2023/02/17 19:33:15;;;;;;;10.80;9.15;;;;;;;;;;10388066;28;20129;-82
2023/02/17 19:38:16;;;;;;;;;;;;;;;;;;10389481;28;20117;-82
2023/02/17 19:43:17;;;;;;;11.65;10.05;;;;;;;;;;10388975;28;20028;-81
2023/02/17 19:48:22;;;;;;;11.10;9.73;;;;;;;;;;10387836;28;20026;-82
2023/02/17 19:53:24;;;;;;;9.20;8.18;;;;;;;;;;10388281;28;20034;-82
2023/02/17 19:58:26;;;;;;;12.63;11.35;;;;;;;;;;10391035;28;20029;-82
2023/02/17 20:03:27;;;;;;;10.60;9.50;;;;;;;;;;10396208;28;20101;-82
2023/02/17 20:08:27;;;;;;;;;;;;;;;;;;10397910;28;20112;-82
2023/02/17 20:13:28;;;;;;;8.70;7.28;;;;;;;;;;10395692;28;19918;-82
2023/02/17 20:18:29;;;;;;;13.27;10.82;;;;;;;;;;10393943;28;20116;-82
